Time;durP1;ratioP1;P1;durP2;ratioP2;P2;SDS_P1;SDS_P2;PMS_P1;PMS_P2;Temp;Humidity;BMP_temperature;BMP_pressure;BME280_temperature;BME280_humidity;BME280_pressure;Samples;Min_cycle;Max_cycle;Signal;HPM_P1;HPM_P2
2022/08/08 00:00:42;;;;;;;1.20;1.10;;;25.30;77.20;;;;;;6336911;22;20049;-81
2022/08/08 00:03:32;;;;;;;1.27;1.17;;;25.30;77.10;;;;;;6336870;22;20328;-81
2022/08/08 00:06:08;;;;;;;1.40;1.25;;;25.40;76.60;;;;;;6337728;22;20010;-80
2022/08/08 00:08:48;;;;;;;1.83;1.50;;;25.40;76.60;;;;;;6337689;22;20480;-79
2022/08/08 00:11:33;;;;;;;2.70;1.60;;;25.40;76.60;;;;;;6336690;22;20117;-79
2022/08/08 00:14:10;;;;;;;2.95;1.60;;;25.40;76.40;;;;;;6337579;22;20002;-79
2022/08/08 00:16:48;;;;;;;2.22;1.48;;;25.50;76.20;;;;;;6337613;22;20018;-81
2022/08/08 00:19:19;;;;;;;2.08;1.40;;;25.40;76.10;;;;;;6338467;22;20014;-79
2022/08/08 00:21:54;;;;;;;1.30;1.20;;;25.40;76.40;;;;;;6338167;22;19999;-79
2022/08/08 00:24:27;;;;;;;2.22;1.50;;;25.40;76.20;;;;;;6337096;22;19999;-80
2022/08/08 00:26:57;;;;;;;1.73;1.45;;;25.40;76.40;;;;;;6337192;22;20002;-79
2022/08/08 00:29:35;;;;;;;1.85;1.23;;;25.30;76.50;;;;;;6309550;22;20353;-80
2022/08/08 00:32:08;;;;;;;1.30;1.20;;;25.30;76.80;;;;;;6336287;22;20052;-81
2022/08/08 00:35:11;;;;;;;1.73;1.45;;;25.30;76.90;;;;;;6337672;22;20002;-82
2022/08/08 00:37:54;;;;;;;1.13;1.02;;;25.20;77.20;;;;;;6337902;22;20001;-82
2022/08/08 00:40:29;;;;;;;1.77;1.17;;;25.20;77.50;;;;;;6337115;22;20031;-82
2022/08/08 00:43:10;;;;;;;1.73;1.20;;;25.20;77.70;;;;;;6337618;22;20413;-82
2022/08/08 00:45:41;;;;;;;2.13;1.25;;;25.20;77.20;;;;;;6338101;22;20003;-82
2022/08/08 00:48:29;;;;;;;1.73;1.30;;;25.20;77.70;;;;;;6337656;22;20027;-83
2022/08/08 00:51:32;;;;;;;1.88;1.30;;;25.20;77.90;;;;;;6337440;22;20321;-83
2022/08/08 00:54:04;;;;;;;1.55;1.33;;;25.20;77.60;;;;;;6337579;22;19999;-83
2022/08/08 00:56:49;;;;;;;1.98;1.30;;;25.20;77.50;;;;;;6338457;22;20367;-84
2022/08/08 00:59:17;;;;;;;1.77;1.67;;;25.10;77.80;;;;;;6337056;22;20353;-82
2022/08/08 01:02:17;;;;;;;2.88;1.85;;;25.10;78.10;;;;;;6336835;22;19999;-84
2022/08/08 01:05:04;;;;;;;2.40;1.10;;;25.10;78.20;;;;;;6336538;22;20009;-83
2022/08/08 01:07:45;;;;;;;1.85;1.30;;;25.00;78.10;;;;;;6337190;22;19998;-83
2022/08/08 01:10:48;;;;;;;3.50;1.20;;;25.10;78.40;;;;;;6336380;22;20444;-83
2022/08/08 01:13:32;;;;;;;3.50;1.73;;;25.20;77.90;;;;;;6337041;22;20006;-83
2022/08/08 01:16:16;;;;;;;1.73;1.50;;;25.20;78.20;;;;;;6336711;22;20055;-83
2022/08/08 01:18:45;;;;;;;1.73;1.30;;;25.00;78.30;;;;;;6336664;22;20006;-82
2022/08/08 01:21:39;;;;;;;1.80;1.25;;;25.00;77.90;;;;;;6336116;22;20003;-83
2022/08/08 01:24:22;;;;;;;2.28;1.70;;;25.10;78.00;;;;;;6337983;22;20029;-82
2022/08/08 01:27:26;;;;;;;2.20;1.58;;;25.20;77.90;;;;;;6337393;22;20003;-82
2022/08/08 01:30:19;;;;;;;3.30;1.60;;;25.20;77.70;;;;;;6336407;22;20003;-83
2022/08/08 01:33:36;;;;;;;2.47;1.60;;;25.20;77.60;;;;;;6336623;22;20413;-82
2022/08/08 01:36:39;;;;;;;2.17;1.58;;;25.20;77.10;;;;;;6283374;22;20432;-83
2022/08/08 01:39:42;;;;;;;1.35;1.25;;;25.20;77.00;;;;;;6336066;22;20007;-83
2022/08/08 01:42:30;;;;;;;2.30;1.63;;;25.20;76.40;;;;;;6336149;22;20321;-82
2022/08/08 01:45:34;;;;;;;0.82;0.82;;;25.10;76.20;;;;;;6336450;22;20371;-82
2022/08/08 01:48:24;;;;;;;1.52;1.30;;;25.10;75.80;;;;;;6312272;22;20026;-81
2022/08/08 01:51:02;;;;;;;1.73;1.40;;;25.10;75.10;;;;;;6336286;22;20311;-80
2022/08/08 01:53:45;;;;;;;1.92;1.20;;;25.10;75.40;;;;;;6308533;22;20431;-80
2022/08/08 01:56:49;;;;;;;2.97;1.20;;;25.20;75.50;;;;;;6336320;22;20010;-80
2022/08/08 01:59:41;;;;;;;1.20;1.08;;;25.20;75.20;;;;;;6246255;22;20091;-80
2022/08/08 02:02:35;;;;;;;1.10;1.00;;;25.30;75.10;;;;;;6319172;22;20343;-83
2022/08/08 02:05:32;;;;;;;0.85;0.85;;;25.40;74.50;;;;;;6336422;22;20136;-82
2022/08/08 02:08:16;;;;;;;1.23;0.88;;;25.40;74.50;;;;;;6335663;22;20070;-82
2022/08/08 02:11:03;;;;;;;1.70;1.30;;;25.40;74.30;;;;;;6336387;22;20106;-82
2022/08/08 02:13:44;;;;;;;1.95;1.70;;;25.40;74.10;;;;;;6336226;22;20421;-82
2022/08/08 02:16:51;;;;;;;1.48;1.00;;;25.30;73.80;;;;;;6308268;22;20430;-82
2022/08/08 02:19:38;;;;;;;1.17;0.90;;;25.20;74.30;;;;;;6210294;23;20083;-82
2022/08/08 02:22:31;;;;;;;1.45;0.88;;;25.10;74.00;;;;;;6328120;22;20003;-82
2022/08/08 02:25:23;;;;;;;1.92;1.17;;;24.90;74.50;;;;;;6276379;22;20032;-82
2022/08/08 02:28:02;;;;;;;1.25;1.10;;;24.80;74.70;;;;;;6336745;22;20002;-83
2022/08/08 02:30:45;;;;;;;1.25;1.10;;;24.80;74.60;;;;;;6335905;22;19998;-83
2022/08/08 02:33:36;;;;;;;1.00;0.77;;;24.90;74.40;;;;;;6337329;22;20082;-83
2022/08/08 02:36:22;;;;;;;2.90;1.45;;;24.90;74.20;;;;;;6337391;22;19998;-82
2022/08/08 02:39:20;;;;;;;2.17;1.02;;;24.90;73.60;;;;;;6336728;22;20022;-81
2022/08/08 02:41:55;;;;;;;1.20;0.90;;;24.80;73.90;;;;;;6225056;22;20156;-81
2022/08/08 02:44:43;;;;;;;1.00;0.80;;;24.90;73.70;;;;;;6336468;22;20036;-82
2022/08/08 02:47:39;;;;;;;1.83;1.10;;;25.00;73.00;;;;;;6337034;22;20030;-83
2022/08/08 02:50:30;;;;;;;4.28;0.95;;;24.90;73.10;;;;;;6307819;22;20006;-83
2022/08/08 02:53:15;;;;;;;1.45;0.90;;;24.70;73.50;;;;;;6335598;22;19995;-83
2022/08/08 02:56:38;;;;;;;1.33;1.00;;;24.70;73.80;;;;;;6335266;22;20412;-82
2022/08/08 02:59:31;;;;;;;1.15;1.05;;;24.80;74.10;;;;;;6208330;23;20004;-82
2022/08/08 03:02:38;;;;;;;0.73;0.73;;;24.80;74.20;;;;;;6335054;22;20064;-81
2022/08/08 03:05:30;;;;;;;1.10;1.00;;;24.90;74.10;;;;;;6336083;22;20074;-81
2022/08/08 03:08:33;;;;;;;2.85;1.08;;;24.90;74.30;;;;;;6337637;22;20003;-81
2022/08/08 03:11:23;;;;;;;1.75;1.10;;;24.90;74.60;;;;;;6337530;22;20132;-81
2022/08/08 03:14:07;;;;;;;0.93;0.85;;;24.90;74.40;;;;;;6338157;22;20598;-81
2022/08/08 03:16:38;;;;;;;2.35;1.40;;;24.80;74.90;;;;;;6338093;22;20003;-81
2022/08/08 03:19:41;;;;;;;1.60;1.15;;;24.80;74.50;;;;;;6338812;22;20052;-81
2022/08/08 03:22:06;;;;;;;1.52;0.90;;;24.70;74.60;;;;;;6339499;22;20359;-81
2022/08/08 03:24:32;;;;;;;1.70;1.00;;;24.60;74.70;;;;;;6338432;22;20066;-81
2022/08/08 03:27:11;;;;;;;3.08;1.33;;;24.60;75.10;;;;;;6339066;22;20409;-81
2022/08/08 03:29:41;;;;;;;3.60;1.27;;;24.50;75.30;;;;;;6338978;22;20360;-82
2022/08/08 03:34:52;;;;;;;1.30;1.20;;;24.30;75.70;;;;;;6337863;22;20332;-81
2022/08/08 03:37:18;;;;;;;1.85;1.00;;;24.30;75.90;;;;;;6337888;22;19995;-81
2022/08/08 03:39:44;;;;;;;4.47;1.10;;;24.30;75.70;;;;;;6336422;22;20009;-81
2022/08/08 03:42:15;;;;;;;1.15;0.90;;;24.30;75.50;;;;;;6337231;22;20087;-81
2022/08/08 03:44:41;;;;;;;3.45;1.13;;;24.40;75.40;;;;;;6337137;22;20017;-80
2022/08/08 03:47:07;;;;;;;1.05;0.90;;;24.40;75.20;;;;;;6309338;22;20319;-81
2022/08/08 03:49:33;;;;;;;0.95;0.80;;;24.40;75.10;;;;;;6336936;22;20048;-80
2022/08/08 03:51:58;;;;;;;0.80;0.77;;;24.40;75.00;;;;;;6336710;22;20006;-80
2022/08/08 03:54:25;;;;;;;2.47;0.95;;;24.50;74.70;;;;;;6337326;22;20006;-81
2022/08/08 03:56:51;;;;;;;0.95;0.77;;;24.50;74.30;;;;;;6337509;22;20080;-81
2022/08/08 03:59:17;;;;;;;1.83;1.10;;;24.50;74.50;;;;;;6337882;22;20066;-82
2022/08/08 04:01:43;;;;;;;2.25;0.90;;;24.50;74.00;;;;;;6336021;22;20040;-81
2022/08/08 04:04:10;;;;;;;0.82;0.82;;;24.50;74.10;;;;;;6337227;22;20002;-81
2022/08/08 04:06:37;;;;;;;1.23;0.80;;;24.50;74.10;;;;;;6309788;22;20052;-80
2022/08/08 04:09:06;;;;;;;2.83;0.90;;;24.60;74.30;;;;;;6337891;22;20424;-82
2022/08/08 04:11:33;;;;;;;1.13;0.70;;;24.70;74.40;;;;;;6336891;22;19999;-82
2022/08/08 04:13:58;;;;;;;1.05;1.00;;;24.70;74.20;;;;;;6337679;22;20029;-83
2022/08/08 04:16:25;;;;;;;1.05;0.90;;;24.70;73.90;;;;;;6337374;22;20425;-83
2022/08/08 04:18:50;;;;;;;4.60;0.88;;;24.70;74.00;;;;;;6309297;22;20003;-83
2022/08/08 04:21:16;;;;;;;1.58;1.05;;;24.60;73.60;;;;;;6337604;22;19998;-84
2022/08/08 04:23:42;;;;;;;1.58;0.80;;;24.70;73.70;;;;;;6338003;22;20021;-84
2022/08/08 04:26:09;;;;;;;2.83;1.15;;;24.70;73.40;;;;;;6337535;22;20043;-84
2022/08/08 04:28:35;;;;;;;1.85;1.17;;;24.70;73.30;;;;;;6337419;22;20003;-83
2022/08/08 04:31:01;;;;;;;2.45;1.27;;;24.50;73.30;;;;;;6336444;22;20005;-82
2022/08/08 04:33:27;;;;;;;1.27;0.90;;;24.50;73.40;;;;;;6337107;22;20047;-80
2022/08/08 04:35:53;;;;;;;1.20;0.90;;;24.50;73.60;;;;;;6337643;22;20070;-80
2022/08/08 04:38:19;;;;;;;3.90;0.98;;;24.50;73.50;;;;;;6336685;22;20001;-80
2022/08/08 04:40:45;;;;;;;1.73;1.30;;;24.50;73.70;;;;;;6336861;22;20010;-79
2022/08/08 04:43:11;;;;;;;3.20;1.10;;;24.50;73.80;;;;;;6337751;22;19998;-83
2022/08/08 04:45:36;;;;;;;1.80;1.02;;;24.30;74.10;;;;;;6337863;22;20026;-81
2022/08/08 04:48:03;;;;;;;2.95;1.10;;;24.30;74.30;;;;;;6336920;22;20241;-81
2022/08/08 04:50:34;;;;;;;1.90;0.98;;;24.20;74.30;;;;;;6336453;22;20047;-81
2022/08/08 04:53:03;;;;;;;1.73;0.90;;;24.20;74.20;;;;;;6339001;22;20025;-81
2022/08/08 04:55:29;;;;;;;1.77;0.98;;;24.30;74.10;;;;;;6337137;22;20022;-80
2022/08/08 04:57:55;;;;;;;3.92;0.95;;;24.30;73.70;;;;;;6336018;22;19999;-78
2022/08/08 05:00:23;;;;;;;2.45;0.70;;;24.30;73.80;;;;;;6337145;22;20019;-82
2022/08/08 05:02:49;;;;;;;3.55;1.10;;;24.40;73.80;;;;;;6337681;22;20368;-78
2022/08/08 05:05:16;;;;;;;5.88;0.98;;;24.50;73.50;;;;;;6337306;22;20030;-80
2022/08/08 05:07:42;;;;;;;1.77;1.20;;;24.50;73.90;;;;;;6335557;22;20051;-85
2022/08/08 05:10:08;;;;;;;1.27;1.10;;;24.60;73.10;;;;;;6335876;22;19999;-83
2022/08/08 05:12:34;;;;;;;5.15;1.10;;;24.60;73.30;;;;;;6335154;22;20376;-83
2022/08/08 05:14:59;;;;;;;1.25;1.08;;;24.70;73.60;;;;;;6336796;22;20452;-82
2022/08/08 05:17:25;;;;;;;0.90;0.90;;;24.80;73.30;;;;;;6335685;22;19998;-82
2022/08/08 05:19:51;;;;;;;1.20;1.10;;;24.80;72.80;;;;;;6335810;22;19999;-82
2022/08/08 05:22:16;;;;;;;4.55;0.80;;;24.90;73.10;;;;;;6310293;22;20006;-82
2022/08/08 05:24:42;;;;;;;1.45;0.98;;;25.00;73.50;;;;;;6336025;22;20721;-83
2022/08/08 05:27:08;;;;;;;2.53;1.15;;;25.10;73.60;;;;;;6334790;22;20003;-82
2022/08/08 05:29:35;;;;;;;2.17;0.93;;;25.20;73.30;;;;;;6306953;22;20002;-77
2022/08/08 05:32:01;;;;;;;1.58;1.25;;;25.30;72.90;;;;;;6334619;22;20314;-83
2022/08/08 05:34:52;;;;;;;3.17;1.10;;;25.30;72.30;;;;;;6334330;22;20010;-78
2022/08/08 05:37:27;;;;;;;1.67;1.10;;;25.40;72.20;;;;;;6336356;22;19995;-77
2022/08/08 05:39:54;;;;;;;1.67;1.25;;;25.40;72.10;;;;;;6307367;22;20010;-82
2022/08/08 05:42:30;;;;;;;6.07;1.33;;;25.40;71.70;;;;;;6335456;22;19995;-77
2022/08/08 05:44:59;;;;;;;1.30;1.10;;;25.50;71.70;;;;;;6336550;22;19999;-81
2022/08/08 05:47:24;;;;;;;2.28;1.75;;;25.50;71.80;;;;;;6336491;22;20013;-81
2022/08/08 05:49:50;;;;;;;2.22;1.55;;;25.50;70.60;;;;;;6336264;22;20328;-80
2022/08/08 05:52:16;;;;;;;1.50;1.40;;;25.50;70.80;;;;;;6334895;22;20003;-76
2022/08/08 05:54:42;;;;;;;2.20;1.60;;;25.50;70.90;;;;;;6334716;22;20002;-81
2022/08/08 05:57:16;;;;;;;1.52;1.30;;;25.50;71.40;;;;;;6336052;22;20441;-81
2022/08/08 05:59:48;;;;;;;1.58;1.45;;;25.60;71.10;;;;;;6336371;22;20002;-82
2022/08/08 06:05:05;;;;;;;1.53;1.40;;;25.70;71.10;;;;;;6337545;22;20065;-82
2022/08/08 06:07:32;;;;;;;1.73;1.40;;;25.70;70.90;;;;;;6309427;22;20006;-82
2022/08/08 06:10:01;;;;;;;1.50;1.30;;;25.80;71.00;;;;;;6337103;22;19999;-82
2022/08/08 06:12:27;;;;;;;2.15;1.60;;;25.80;70.80;;;;;;6338128;22;20022;-82
2022/08/08 06:14:55;;;;;;;2.80;1.60;;;25.80;70.40;;;;;;6329549;22;20428;-82
2022/08/08 06:17:21;;;;;;;2.83;1.70;;;25.90;70.30;;;;;;6334832;22;20022;-83
2022/08/08 06:19:48;;;;;;;2.13;1.42;;;25.90;69.70;;;;;;6309364;22;20309;-81
2022/08/08 06:22:14;;;;;;;1.98;1.40;;;25.90;70.50;;;;;;6309907;22;20340;-83
2022/08/08 06:24:39;;;;;;;2.17;1.48;;;25.90;70.30;;;;;;6337474;22;20070;-83
2022/08/08 06:27:09;;;;;;;1.63;1.52;;;26.00;70.30;;;;;;6337158;22;20010;-83
2022/08/08 06:29:54;;;;;;;2.50;1.73;;;26.00;69.50;;;;;;6337282;22;20359;-83
2022/08/08 06:32:28;;;;;;;1.60;1.50;;;26.00;69.70;;;;;;6333553;22;20021;-82
2022/08/08 06:34:59;;;;;;;1.95;1.55;;;26.00;69.10;;;;;;6309060;22;20085;-82
2022/08/08 06:37:30;;;;;;;1.63;1.23;;;26.00;69.00;;;;;;6309956;22;20003;-82
2022/08/08 06:40:02;;;;;;;3.53;1.77;;;26.10;69.30;;;;;;6337690;22;20078;-80
2022/08/08 06:42:31;;;;;;;3.22;1.45;;;26.10;68.90;;;;;;6339270;22;19999;-82
2022/08/08 06:44:58;;;;;;;1.43;1.33;;;26.10;69.10;;;;;;6339578;22;20401;-82
2022/08/08 06:47:24;;;;;;;1.92;1.50;;;26.20;69.30;;;;;;6339837;22;20013;-82
2022/08/08 06:49:50;;;;;;;2.20;1.33;;;26.20;68.60;;;;;;6339541;22;20007;-82
2022/08/08 06:52:16;;;;;;;1.60;1.50;;;26.30;68.80;;;;;;6339827;22;20026;-82
2022/08/08 06:54:44;;;;;;;3.50;1.73;;;26.30;68.30;;;;;;6339564;22;20484;-83
2022/08/08 06:57:09;;;;;;;2.72;1.67;;;26.40;68.50;;;;;;6339627;22;20006;-82
2022/08/08 06:59:36;;;;;;;3.03;2.10;;;26.40;67.90;;;;;;6310944;22;20009;-82
2022/08/08 07:02:03;;;;;;;1.73;1.63;;;26.40;67.30;;;;;;6339113;22;20017;-82
2022/08/08 07:05:08;;;;;;;1.65;1.50;;;26.40;67.40;;;;;;6337943;22;20007;-82
2022/08/08 07:08:02;;;;;;;3.92;2.08;;;26.50;67.70;;;;;;6311784;22;20014;-82
2022/08/08 07:10:35;;;;;;;2.80;1.88;;;26.60;66.60;;;;;;6338520;22;19995;-81
2022/08/08 07:13:05;;;;;;;2.35;1.60;;;26.70;67.60;;;;;;6339234;22;19999;-84
2022/08/08 07:15:44;;;;;;;61.70;55.65;;;26.80;67.60;;;;;;6339595;22;20003;-83
2022/08/08 07:18:09;;;;;;;99.68;89.03;;;26.90;66.80;;;;;;6338425;22;20005;-83
2022/08/08 07:20:38;;;;;;;97.30;85.50;;;26.90;67.20;;;;;;6339307;22;20027;-79
2022/08/08 07:23:14;;;;;;;8.57;7.72;;;27.00;67.10;;;;;;6339064;22;20068;-80
2022/08/08 07:25:41;;;;;;;5.38;3.25;;;27.10;66.70;;;;;;6311350;22;20018;-80
2022/08/08 07:28:14;;;;;;;3.00;2.47;;;27.20;66.70;;;;;;6336994;22;20010;-80
2022/08/08 07:30:41;;;;;;;4.18;2.50;;;27.20;66.60;;;;;;6334259;22;20085;-81
2022/08/08 07:33:10;;;;;;;3.17;2.03;;;27.30;66.70;;;;;;6334524;22;20027;-78
2022/08/08 07:35:37;;;;;;;4.03;3.07;;;27.40;66.30;;;;;;6334654;22;20416;-78
2022/08/08 07:38:03;;;;;;;2.70;2.00;;;27.50;65.80;;;;;;6336185;22;19998;-80
2022/08/08 07:40:31;;;;;;;2.38;2.17;;;27.50;66.50;;;;;;6336945;22;20022;-80
2022/08/08 07:42:57;;;;;;;2.80;2.03;;;27.50;64.90;;;;;;6336089;22;19995;-81
2022/08/08 07:45:23;;;;;;;5.45;1.83;;;27.50;65.50;;;;;;6335469;22;20097;-80
2022/08/08 07:47:51;;;;;;;3.58;1.67;;;27.50;64.60;;;;;;6334264;22;20056;-81
2022/08/08 07:50:16;;;;;;;2.15;1.70;;;27.60;65.00;;;;;;6333641;22;20496;-79
2022/08/08 07:52:46;;;;;;;2.28;1.77;;;27.60;64.50;;;;;;6332770;22;20003;-80
2022/08/08 07:55:16;;;;;;;;;;;27.60;63.60;;;;;;6335128;22;20007;-79
2022/08/08 07:58:15;;;;;;;3.53;2.15;;;27.70;63.80;;;;;;6306725;22;20301;-79
2022/08/08 08:01:19;;;;;;;3.15;1.90;;;27.80;64.10;;;;;;6335122;22;20003;-80
2022/08/08 08:03:50;;;;;;;2.35;2.10;;;27.90;63.80;;;;;;6245355;22;20026;-79
2022/08/08 08:06:18;;;;;;;3.10;2.13;;;28.00;64.20;;;;;;6334310;22;20440;-80
2022/08/08 08:08:48;;;;;;;5.55;1.98;;;28.00;62.90;;;;;;6335869;22;20478;-80
2022/08/08 08:11:19;;;;;;;4.55;2.30;;;28.20;62.90;;;;;;6334974;22;20018;-78
2022/08/08 08:14:07;;;;;;;2.13;1.90;;;28.20;62.30;;;;;;6334848;22;20006;-79
2022/08/08 08:16:34;;;;;;;2.28;2.08;;;28.30;62.30;;;;;;6334807;22;20428;-85
2022/08/08 08:19:05;;;;;;;3.53;1.90;;;28.30;61.30;;;;;;6334399;22;19999;-80
2022/08/08 08:21:37;;;;;;;14.05;3.30;;;28.40;62.20;;;;;;6334592;22;19999;-80
2022/08/08 08:24:04;;;;;;;8.57;2.38;;;28.50;62.20;;;;;;6306884;22;20337;-81
2022/08/08 08:26:29;;;;;;;2.95;2.08;;;28.50;62.30;;;;;;6335896;22;20010;-81
2022/08/08 08:28:55;;;;;;;4.45;2.17;;;28.60;61.90;;;;;;6336649;22;20007;-82
2022/08/08 08:31:21;;;;;;;2.67;2.17;;;28.70;61.70;;;;;;6333841;22;20002;-80
2022/08/08 08:33:47;;;;;;;2.55;2.05;;;28.80;61.80;;;;;;6305807;22;20467;-87
2022/08/08 08:36:14;;;;;;;2.00;1.80;;;28.90;61.60;;;;;;6334483;22;20038;-88
2022/08/08 08:38:40;;;;;;;2.75;2.20;;;29.00;61.10;;;;;;6335029;22;20002;-85
2022/08/08 08:41:10;;;;;;;4.85;2.00;;;29.10;61.00;;;;;;6337077;22;20002;-86
2022/08/08 08:43:38;;;;;;;3.30;2.45;;;29.20;60.70;;;;;;6308080;22;20006;-85
2022/08/08 08:46:07;;;;;;;3.33;2.10;;;29.30;60.20;;;;;;6337149;22;20032;-87
2022/08/08 08:48:34;;;;;;;2.17;1.85;;;29.30;60.20;;;;;;6309472;22;20698;-85
2022/08/08 08:51:01;;;;;;;3.45;2.22;;;29.40;60.40;;;;;;6337204;22;19999;-86
2022/08/08 09:04:46;;;;;;;4.10;2.28;;;29.90;58.00;;;;;;6299330;22;20084;-92
2022/08/08 09:07:18;;;;;;;3.55;2.15;;;29.90;57.30;;;;;;6272936;22;20026;-93
2022/08/08 09:09:49;;;;;;;2.08;1.88;;;30.00;58.00;;;;;;6301547;22;20453;-93
2022/08/08 09:12:22;;;;;;;2.63;1.95;;;30.00;57.30;;;;;;6295086;22;20030;-95
2022/08/08 09:14:52;;;;;;;3.10;2.30;;;30.10;57.80;;;;;;6289647;22;20003;-93
2022/08/08 09:17:18;;;;;;;3.08;2.10;;;30.20;57.60;;;;;;6304610;22;20319;-93
2022/08/08 09:19:47;;;;;;;2.28;2.08;;;30.20;57.90;;;;;;6302276;22;20003;-91
2022/08/08 09:22:14;;;;;;;4.00;2.10;;;30.40;58.10;;;;;;6304583;22;20042;-92
2022/08/08 09:24:42;;;;;;;4.03;2.28;;;30.40;57.20;;;;;;6303752;22;20006;-93
2022/08/08 09:27:09;;;;;;;2.45;2.20;;;30.40;54.00;;;;;;6304292;22;20007;-93
2022/08/08 09:29:50;;;;;;;2.28;2.08;;;30.30;56.10;;;;;;6302721;22;20003;-92
2022/08/08 09:32:30;;;;;;;3.10;2.63;;;30.40;57.10;;;;;;6300086;22;20056;-93
2022/08/08 09:35:00;;;;;;;2.70;2.50;;;30.40;56.10;;;;;;6302668;22;20465;-91
2022/08/08 09:37:28;;;;;;;2.30;2.10;;;30.40;55.00;;;;;;6301824;22;20011;-92
2022/08/08 09:40:03;;;;;;;7.07;3.10;;;30.40;55.60;;;;;;6302120;22;20086;-91
2022/08/08 09:42:33;;;;;;;2.53;2.33;;;30.20;53.90;;;;;;6305549;22;20479;-92
2022/08/08 09:45:11;;;;;;;2.40;2.20;;;30.30;54.80;;;;;;6304128;22;20283;-96
2022/08/08 09:47:42;;;;;;;3.33;2.20;;;30.40;56.00;;;;;;6304332;22;20029;-93
2022/08/08 09:50:13;;;;;;;2.47;2.28;;;30.60;56.40;;;;;;6305488;22;20052;-93
2022/08/08 09:52:42;;;;;;;2.63;1.95;;;30.80;56.50;;;;;;6304000;22;20074;-93
2022/08/08 09:55:09;;;;;;;4.50;2.40;;;31.00;56.30;;;;;;6305281;22;20015;-93
2022/08/08 09:57:37;;;;;;;2.38;2.13;;;31.10;52.70;;;;;;6306550;22;20054;-92
2022/08/08 10:00:14;;;;;;;2.40;2.20;;;31.20;54.40;;;;;;6307281;22;20483;-94
2022/08/08 10:02:51;;;;;;;2.58;2.35;;;31.20;54.80;;;;;;6303048;22;20004;-95
2022/08/08 10:05:24;;;;;;;2.10;1.92;;;31.30;55.00;;;;;;6305320;22;20015;-95
2022/08/08 10:08:01;;;;;;;8.35;2.38;;;31.40;54.50;;;;;;6306098;22;20460;-94
2022/08/08 10:10:32;;;;;;;3.58;2.60;;;31.40;52.20;;;;;;6304877;22;20027;-95
2022/08/08 10:13:00;;;;;;;2.60;2.15;;;31.50;53.00;;;;;;6304733;22;20007;-93
2022/08/08 10:15:34;;;;;;;3.05;2.17;;;31.50;53.50;;;;;;6312335;22;20018;-94
2022/08/08 10:18:00;;;;;;;3.78;2.20;;;31.60;53.70;;;;;;6310829;22;20060;-94
2022/08/08 10:20:28;;;;;;;2.33;2.13;;;31.70;53.90;;;;;;6311153;22;20485;-96
2022/08/08 10:23:03;;;;;;;2.45;2.25;;;31.90;54.10;;;;;;6342826;22;19995;-95
2022/08/08 10:25:29;;;;;;;3.10;2.22;;;32.10;54.00;;;;;;6313887;22;20090;-95
2022/08/08 10:27:56;;;;;;;4.47;2.22;;;32.20;53.00;;;;;;6314231;22;19999;-94
2022/08/08 10:30:23;;;;;;;2.67;2.30;;;32.30;52.50;;;;;;6312819;22;20017;-94
2022/08/08 10:32:56;;;;;;;2.83;2.58;;;32.40;52.60;;;;;;6339152;22;20001;-95
2022/08/08 10:35:30;;;;;;;3.70;2.38;;;32.50;51.20;;;;;;6313276;22;20015;-95
2022/08/08 10:37:58;;;;;;;5.15;2.75;;;32.50;52.20;;;;;;6311954;22;20425;-95
2022/08/08 10:40:51;;;;;;;2.40;2.20;;;32.60;52.30;;;;;;6340988;22;20424;-94
2022/08/08 10:43:17;;;;;;;2.13;2.00;;;32.80;51.70;;;;;;6312567;22;20054;-94
2022/08/08 10:45:45;;;;;;;3.13;2.10;;;33.00;52.10;;;;;;6340653;22;20037;-96
2022/08/08 10:48:17;;;;;;;4.35;2.53;;;33.20;51.40;;;;;;6312232;22;20458;-96
2022/08/08 10:50:43;;;;;;;3.90;2.45;;;33.30;50.60;;;;;;6312821;22;20006;-96
2022/08/08 10:53:15;;;;;;;2.40;2.15;;;33.40;50.70;;;;;;6340600;22;20021;-96
2022/08/08 10:55:41;;;;;;;3.53;1.92;;;33.40;50.20;;;;;;6339781;22;20015;-93
2022/08/08 10:58:09;;;;;;;4.43;2.40;;;33.50;50.80;;;;;;6312047;22;20002;-94
2022/08/08 11:01:00;;;;;;;3.20;2.47;;;33.70;51.70;;;;;;6315782;22;20013;-95
2022/08/08 11:03:27;;;;;;;4.90;2.20;;;34.00;49.10;;;;;;6308249;22;19999;-95
2022/08/08 11:05:53;;;;;;;4.25;2.30;;;34.00;49.60;;;;;;6311368;22;20456;-96
2022/08/08 11:08:25;;;;;;;4.10;1.92;;;34.10;50.00;;;;;;6315159;22;20003;-96
2022/08/08 11:11:04;;;;;;;3.15;2.08;;;34.30;50.00;;;;;;6309722;22;20007;-95
2022/08/08 11:13:39;;;;;;;3.13;2.50;;;34.50;49.60;;;;;;6310369;22;20007;-95
2022/08/08 11:16:23;;;;;;;2.97;2.30;;;34.50;49.30;;;;;;6311133;22;20045;-95
2022/08/08 11:18:50;;;;;;;4.43;2.28;;;34.70;49.20;;;;;;6308561;22;20007;-94
2022/08/08 11:21:17;;;;;;;3.28;2.63;;;34.80;49.40;;;;;;6309784;22;20010;-95
2022/08/08 11:23:43;;;;;;;2.08;1.98;;;35.00;49.30;;;;;;6337585;22;19998;-96
2022/08/08 11:26:16;;;;;;;2.70;2.30;;;35.10;49.20;;;;;;6310017;22;20484;-95
2022/08/08 11:28:44;;;;;;;4.07;2.65;;;35.50;49.00;;;;;;6309364;22;20098;-94
2022/08/08 11:31:14;;;;;;;2.45;2.25;;;35.70;47.90;;;;;;6311926;22;20764;-95
2022/08/08 11:34:37;;;;;;;2.55;2.20;;;35.90;47.60;;;;;;6337020;22;20018;-96
2022/08/08 11:37:08;;;;;;;2.70;2.10;;;36.00;46.60;;;;;;6338981;22;20015;-95
2022/08/08 11:39:46;;;;;;;5.05;2.20;;;36.30;47.10;;;;;;6311470;22;20056;-96
2022/08/08 11:42:13;;;;;;;3.38;2.67;;;36.70;46.30;;;;;;6312421;22;20014;-95
2022/08/08 11:44:39;;;;;;;2.47;2.28;;;36.90;45.90;;;;;;6311174;22;20414;-94
2022/08/08 11:47:09;;;;;;;2.80;2.60;;;37.20;45.40;;;;;;6339881;22;20129;-96
2022/08/08 11:49:35;;;;;;;5.97;2.47;;;37.60;45.10;;;;;;6311044;22;20006;-95
2022/08/08 11:52:01;;;;;;;2.97;2.50;;;37.80;44.30;;;;;;6313756;22;20009;-96
2022/08/08 11:54:33;;;;;;;2.70;2.17;;;38.00;43.60;;;;;;6311374;22;19999;-96
2022/08/08 11:57:38;;;;;;;2.30;2.10;;;38.00;42.70;;;;;;6312789;22;20173;-95
2022/08/08 12:00:13;;;;;;;9.13;2.35;;;37.70;42.10;;;;;;6251359;22;20006;-96
2022/08/08 12:02:53;;;;;;;2.53;2.33;;;37.60;43.00;;;;;;6312663;22;20009;-94
2022/08/08 12:05:39;;;;;;;2.92;2.53;;;37.40;41.00;;;;;;6309780;22;20019;-95
2022/08/08 12:08:05;;;;;;;3.60;2.53;;;37.20;42.20;;;;;;6310464;22;20055;-95
2022/08/08 12:10:31;;;;;;;5.10;2.80;;;37.00;43.20;;;;;;6337543;22;20021;-95
2022/08/08 12:13:14;;;;;;;3.05;2.33;;;36.80;43.10;;;;;;6311043;22;20019;-94
2022/08/08 12:15:47;;;;;;;4.40;2.47;;;36.60;43.30;;;;;;6310350;22;20023;-95
2022/08/08 12:18:20;;;;;;;2.78;2.30;;;36.50;43.90;;;;;;6309251;22;19999;-94
2022/08/08 12:20:46;;;;;;;2.75;2.45;;;36.40;44.20;;;;;;6310149;22;20007;-93
2022/08/08 12:23:12;;;;;;;2.92;2.60;;;36.40;44.50;;;;;;6309683;22;20436;-94
2022/08/08 12:25:41;;;;;;;4.07;3.22;;;36.60;44.70;;;;;;6338411;22;20021;-96
2022/08/08 12:28:17;;;;;;;3.30;2.70;;;36.90;44.10;;;;;;6310181;22;20002;-95
2022/08/08 12:30:47;;;;;;;6.97;3.00;;;37.30;43.10;;;;;;6311356;22;20097;-94
2022/08/08 12:33:19;;;;;;;5.35;2.70;;;37.40;43.00;;;;;;6311156;22;19999;-94
2022/08/08 12:35:46;;;;;;;2.78;2.58;;;37.40;42.90;;;;;;6337953;22;20038;-93
2022/08/08 12:38:12;;;;;;;2.53;2.33;;;37.40;43.00;;;;;;6308678;22;20010;-95
2022/08/08 12:40:40;;;;;;;3.33;2.83;;;37.40;43.50;;;;;;6311944;22;20433;-94
2022/08/08 12:43:06;;;;;;;8.52;2.42;;;37.40;43.60;;;;;;6312090;22;20010;-93
2022/08/08 12:45:34;;;;;;;2.38;2.17;;;37.50;43.20;;;;;;6310826;22;20006;-93
2022/08/08 12:48:02;;;;;;;3.65;2.42;;;37.90;43.20;;;;;;6311113;22;20037;-93
2022/08/08 12:50:42;;;;;;;5.65;2.72;;;37.80;42.60;;;;;;6310495;22;20060;-93
2022/08/08 12:53:22;;;;;;;4.40;2.72;;;38.10;42.50;;;;;;6311747;22;20010;-94
2022/08/08 12:56:08;;;;;;;3.03;2.30;;;38.20;41.60;;;;;;6310433;22;20010;-94
2022/08/08 12:58:51;;;;;;;2.58;2.38;;;38.30;41.30;;;;;;6311459;22;20132;-95
2022/08/08 13:01:16;;;;;;;2.50;2.30;;;38.30;40.30;;;;;;6337591;22;20009;-95
2022/08/08 13:03:47;;;;;;;4.75;2.40;;;38.30;41.60;;;;;;6338874;22;20059;-95
2022/08/08 13:06:17;;;;;;;2.28;2.08;;;38.40;41.70;;;;;;6315513;22;20015;-95
2022/08/08 13:08:48;;;;;;;3.85;2.63;;;38.60;41.40;;;;;;6340778;22;20007;-95
2022/08/08 13:11:37;;;;;;;4.55;2.40;;;38.60;41.60;;;;;;6311941;22;20003;-95
2022/08/08 13:14:14;;;;;;;3.70;2.50;;;38.70;41.40;;;;;;6313743;22;20006;-96
2022/08/08 13:16:41;;;;;;;3.70;2.53;;;38.70;41.10;;;;;;6311541;22;20010;-94
2022/08/08 13:19:09;;;;;;;4.22;2.45;;;38.70;41.30;;;;;;6312605;22;20003;-95
2022/08/08 13:24:49;;;;;;;2.95;2.40;;;38.70;40.90;;;;;;6349975;22;20159;-94
2022/08/08 13:27:35;;;;;;;2.45;2.25;;;38.60;41.80;;;;;;6349930;22;20070;-96
2022/08/08 13:30:37;;;;;;;2.95;2.65;;;38.60;42.50;;;;;;6351219;22;20003;-95
2022/08/08 13:33:03;;;;;;;4.30;3.13;;;38.50;42.90;;;;;;6343033;22;20002;-95
2022/08/08 13:35:29;;;;;;;4.72;2.80;;;38.50;43.00;;;;;;6339077;22;20425;-94
2022/08/08 13:38:02;;;;;;;2.67;2.40;;;38.50;43.10;;;;;;6311669;22;20003;-94
2022/08/08 13:40:28;;;;;;;3.75;2.60;;;38.50;43.00;;;;;;6338477;22;20007;-94
2022/08/08 13:42:55;;;;;;;3.13;2.50;;;38.50;43.00;;;;;;6312690;22;20006;-94
2022/08/08 13:46:08;;;;;;;4.03;2.53;;;38.50;43.00;;;;;;6312891;22;20007;-93